Time;durP1;ratioP1;P1;durP2;ratioP2;P2;SDS_P1;SDS_P2;PMS_P1;PMS_P2;Temp;Humidity;BMP_temperature;BMP_pressure;BME280_temperature;BME280_humidity;BME280_pressure;Samples;Min_cycle;Max_cycle;Signal;HPM_P1;HPM_P2
2023/06/19 00:00:30;;;;;;;4.75;4.18;;;24.80;61.30;;;;;;5034433;28;20037;-78
2023/06/19 00:02:56;;;;;;;5.57;4.40;;;24.90;61.30;;;;;;5034175;28;20033;-78
2023/06/19 00:05:23;;;;;;;5.72;5.13;;;24.90;61.50;;;;;;5016592;28;20025;-78
2023/06/19 00:07:49;;;;;;;4.72;4.30;;;24.90;61.70;;;;;;5034628;28;20033;-78
2023/06/19 00:10:15;;;;;;;4.45;4.05;;;24.90;61.90;;;;;;5032854;28;20037;-78
2023/06/19 00:12:40;;;;;;;4.85;4.35;;;24.90;61.70;;;;;;5033966;28;20026;-78
2023/06/19 00:15:09;;;;;;;4.05;3.53;;;25.00;61.50;;;;;;5034194;28;20034;-78
2023/06/19 00:17:37;;;;;;;6.15;4.07;;;25.00;61.40;;;;;;5032875;28;20120;-78
2023/06/19 00:20:04;;;;;;;6.85;4.50;;;25.00;61.60;;;;;;5033876;28;20116;-78
2023/06/19 00:22:29;;;;;;;6.38;4.22;;;25.00;61.90;;;;;;5034414;28;20036;-78
2023/06/19 00:24:55;;;;;;;4.72;4.30;;;24.90;62.80;;;;;;5032372;28;20029;-78
2023/06/19 00:27:20;;;;;;;5.00;4.30;;;24.80;62.80;;;;;;5034098;28;20417;-78
2023/06/19 00:29:46;;;;;;;8.40;4.47;;;24.80;62.80;;;;;;5033664;28;20045;-78
2023/06/19 00:32:12;;;;;;;4.50;4.00;;;24.80;63.40;;;;;;5033763;28;20033;-78
2023/06/19 00:34:37;;;;;;;5.72;4.18;;;24.80;63.30;;;;;;5032568;28;20025;-78
2023/06/19 00:37:04;;;;;;;5.47;4.40;;;24.80;63.70;;;;;;5034326;28;20060;-78
2023/06/19 00:39:29;;;;;;;7.18;4.38;;;24.80;64.50;;;;;;5033387;28;20398;-78
2023/06/19 00:41:57;;;;;;;5.38;4.43;;;24.70;64.50;;;;;;5033534;28;20155;-78
2023/06/19 00:44:22;;;;;;;5.15;4.43;;;24.70;64.90;;;;;;5032726;28;20132;-78
2023/06/19 00:46:55;;;;;;;6.43;4.40;;;24.60;65.20;;;;;;5033386;28;20083;-77
2023/06/19 00:49:21;;;;;;;4.78;4.13;;;24.60;65.40;;;;;;5034018;28;20378;-78
2023/06/19 00:51:47;;;;;;;6.35;4.63;;;24.60;65.90;;;;;;5034189;28;20098;-75
2023/06/19 00:54:12;;;;;;;5.10;4.32;;;24.50;65.90;;;;;;5033571;28;20132;-77
2023/06/19 00:56:40;;;;;;;6.10;4.30;;;24.50;66.40;;;;;;5033516;28;20532;-78
2023/06/19 00:59:17;;;;;;;6.18;4.43;;;24.40;66.20;;;;;;5034116;28;20135;-78
2023/06/19 01:01:44;;;;;;;5.45;4.10;;;24.40;66.60;;;;;;5037527;28;20108;-78
2023/06/19 01:04:09;;;;;;;5.13;4.05;;;24.30;66.60;;;;;;5037496;28;20115;-78
2023/06/19 01:07:02;;;;;;;6.22;4.28;;;24.40;66.70;;;;;;5037784;28;20458;-78
2023/06/19 01:09:36;;;;;;;;;;;24.30;66.60;;;;;;5038176;28;20458;-78
2023/06/19 01:12:09;;;;;;;7.68;4.55;;;24.30;66.80;;;;;;5036068;28;19905;-78
2023/06/19 01:14:43;;;;;;;7.43;4.10;;;24.20;66.80;;;;;;5037459;28;20485;-78
2023/06/19 01:17:10;;;;;;;4.28;3.88;;;24.10;67.10;;;;;;5037339;28;20156;-78
2023/06/19 01:19:36;;;;;;;6.32;4.30;;;24.10;67.10;;;;;;5037759;28;20037;-77
2023/06/19 01:22:04;;;;;;;7.03;4.28;;;24.10;67.20;;;;;;5019574;28;20045;-78
2023/06/19 01:24:29;;;;;;;4.72;4.22;;;24.10;67.30;;;;;;5037053;28;20521;-78
2023/06/19 01:26:55;;;;;;;6.53;4.03;;;24.00;67.30;;;;;;5019317;28;20108;-78
2023/06/19 01:29:21;;;;;;;5.63;3.80;;;24.00;67.30;;;;;;5019601;28;20061;-78
2023/06/19 01:31:59;;;;;;;5.25;3.80;;;24.00;67.50;;;;;;5036042;28;20484;-78
2023/06/19 01:34:27;;;;;;;5.40;3.55;;;24.00;67.40;;;;;;5037679;28;20446;-78
2023/06/19 01:36:56;;;;;;;5.32;3.95;;;23.90;67.40;;;;;;5036961;28;20527;-77
2023/06/19 01:39:23;;;;;;;4.18;3.65;;;23.90;68.20;;;;;;5037195;28;20114;-77
2023/06/19 01:41:51;;;;;;;5.85;3.80;;;23.90;67.60;;;;;;5019083;28;20033;-77
2023/06/19 01:44:17;;;;;;;4.47;3.83;;;23.80;67.70;;;;;;5037232;28;20107;-78
2023/06/19 01:46:43;;;;;;;4.28;3.30;;;23.80;67.90;;;;;;5035294;28;20037;-77
2023/06/19 01:49:11;;;;;;;6.30;3.30;;;23.70;68.20;;;;;;5036657;28;20042;-78
2023/06/19 01:51:36;;;;;;;3.75;3.40;;;23.70;68.10;;;;;;5035936;28;20021;-78
2023/06/19 01:54:04;;;;;;;4.00;3.58;;;23.70;68.40;;;;;;5035669;28;20071;-77
2023/06/19 01:56:29;;;;;;;4.25;3.30;;;23.70;68.70;;;;;;5035331;28;20029;-78
2023/06/19 01:58:55;;;;;;;5.70;3.30;;;23.70;68.60;;;;;;5036558;28;20091;-78
2023/06/19 02:01:21;;;;;;;5.43;3.53;;;23.60;68.90;;;;;;5036494;28;20034;-78
2023/06/19 02:03:47;;;;;;;4.32;3.05;;;23.60;69.00;;;;;;5035035;28;20037;-78
2023/06/19 02:06:12;;;;;;;3.80;3.38;;;23.60;69.20;;;;;;5034966;28;20036;-78
2023/06/19 02:08:38;;;;;;;5.18;3.53;;;23.60;69.30;;;;;;5035720;28;20144;-77
2023/06/19 02:11:04;;;;;;;3.95;3.40;;;23.60;69.70;;;;;;5034671;28;20363;-78
2023/06/19 02:13:29;;;;;;;5.60;3.03;;;23.50;69.60;;;;;;5035944;28;20112;-78
2023/06/19 02:15:55;;;;;;;5.47;3.40;;;23.50;69.90;;;;;;5036207;28;20175;-78
2023/06/19 02:18:21;;;;;;;5.53;3.83;;;23.40;70.20;;;;;;5018601;28;20044;-78
2023/06/19 02:20:47;;;;;;;4.55;3.67;;;23.30;70.40;;;;;;5035296;28;20037;-77
2023/06/19 02:23:12;;;;;;;5.60;3.38;;;23.30;70.80;;;;;;5034949;28;20030;-78
2023/06/19 02:25:38;;;;;;;5.18;3.17;;;23.20;71.00;;;;;;5034785;28;20030;-78
2023/06/19 02:28:04;;;;;;;4.75;3.10;;;23.20;71.80;;;;;;5034526;28;20116;-78
2023/06/19 02:30:29;;;;;;;6.35;2.92;;;23.10;71.80;;;;;;5035920;28;20048;-78
2023/06/19 02:32:55;;;;;;;5.35;3.08;;;23.10;72.60;;;;;;5035330;28;20033;-78
2023/06/19 02:35:21;;;;;;;8.07;3.03;;;22.90;73.10;;;;;;5036402;28;20116;-78
2023/06/19 02:37:47;;;;;;;4.50;3.03;;;22.80;73.40;;;;;;5034641;28;20037;-78
2023/06/19 02:40:14;;;;;;;3.05;2.75;;;22.80;73.50;;;;;;5034756;28;20041;-77
2023/06/19 02:42:40;;;;;;;4.15;3.40;;;22.80;73.60;;;;;;5035583;28;20025;-78
2023/06/19 02:45:06;;;;;;;4.40;3.25;;;22.80;73.50;;;;;;5018369;28;20037;-78
2023/06/19 02:47:32;;;;;;;3.88;3.00;;;22.80;73.70;;;;;;5034330;28;20447;-78
2023/06/19 02:49:59;;;;;;;4.30;3.15;;;22.80;73.70;;;;;;5036265;28;20041;-78
2023/06/19 02:52:24;;;;;;;3.75;3.00;;;22.80;73.60;;;;;;5035923;28;20054;-78
2023/06/19 02:54:50;;;;;;;3.35;3.05;;;22.80;73.80;;;;;;5036016;28;20097;-78
2023/06/19 02:57:16;;;;;;;2.88;2.63;;;22.90;73.70;;;;;;5034204;28;20052;-78
2023/06/19 02:59:41;;;;;;;3.53;3.22;;;22.90;73.80;;;;;;5035467;28;20037;-78
2023/06/19 03:02:07;;;;;;;4.65;3.22;;;22.90;73.70;;;;;;5034705;28;20385;-78
2023/06/19 03:04:32;;;;;;;3.65;2.70;;;22.90;74.10;;;;;;5035314;28;20036;-78
2023/06/19 03:06:58;;;;;;;2.63;2.42;;;22.90;74.10;;;;;;5035245;28;20112;-78
2023/06/19 03:09:24;;;;;;;5.18;2.33;;;22.80;74.50;;;;;;5035126;28;20116;-78
2023/06/19 03:11:49;;;;;;;2.67;2.35;;;22.70;74.80;;;;;;5034169;28;20029;-77
2023/06/19 03:14:15;;;;;;;2.45;1.73;;;22.70;75.50;;;;;;5034246;28;20360;-78
2023/06/19 03:16:40;;;;;;;3.67;1.58;;;22.60;76.40;;;;;;5035044;28;20113;-78
2023/06/19 03:19:06;;;;;;;1.52;1.40;;;22.60;76.50;;;;;;5035308;28;20040;-78
2023/06/19 03:21:32;;;;;;;2.65;1.92;;;22.60;76.50;;;;;;5016921;28;20057;-78
2023/06/19 03:23:57;;;;;;;2.13;1.80;;;22.50;77.10;;;;;;5034479;28;20040;-78
2023/06/19 03:26:24;;;;;;;4.75;1.38;;;22.50;77.10;;;;;;5034538;28;20030;-78
2023/06/19 03:28:50;;;;;;;2.00;1.58;;;22.60;77.10;;;;;;5034763;28;20026;-78
2023/06/19 03:31:16;;;;;;;3.53;1.70;;;22.60;77.00;;;;;;5035076;28;20029;-77
2023/06/19 03:33:41;;;;;;;2.80;2.00;;;22.60;77.10;;;;;;5033527;28;20025;-78
2023/06/19 03:36:07;;;;;;;3.65;1.90;;;22.60;77.20;;;;;;5034412;28;20037;-78
2023/06/19 03:38:33;;;;;;;2.17;1.77;;;22.60;76.90;;;;;;5034428;28;20075;-78
2023/06/19 03:40:58;;;;;;;2.17;1.83;;;22.60;77.00;;;;;;5033314;28;20033;-78
2023/06/19 03:43:24;;;;;;;2.63;1.85;;;22.70;76.80;;;;;;5033756;28;20033;-78
2023/06/19 03:45:50;;;;;;;2.35;1.73;;;22.70;76.90;;;;;;5034262;28;20029;-78
2023/06/19 03:48:16;;;;;;;3.38;2.08;;;22.70;77.00;;;;;;5016535;28;20103;-78
2023/06/19 03:50:42;;;;;;;2.83;1.45;;;22.70;77.20;;;;;;5034301;28;20509;-78
2023/06/19 03:53:07;;;;;;;1.77;1.33;;;22.70;77.30;;;;;;5032964;28;20053;-78
2023/06/19 03:55:34;;;;;;;1.92;1.60;;;22.70;77.20;;;;;;5034320;28;20032;-78
2023/06/19 03:57:59;;;;;;;1.77;1.50;;;22.80;77.10;;;;;;5034353;28;20095;-78
2023/06/19 04:00:25;;;;;;;2.03;1.70;;;22.80;77.10;;;;;;5033184;28;20033;-78
2023/06/19 04:02:51;;;;;;;1.63;1.50;;;22.80;77.00;;;;;;5033906;28;20057;-78
2023/06/19 04:05:16;;;;;;;3.15;1.67;;;22.80;77.50;;;;;;5033880;28;20112;-78
2023/06/19 04:07:42;;;;;;;2.15;1.63;;;22.80;77.50;;;;;;5032872;28;20057;-78
2023/06/19 04:10:08;;;;;;;2.15;1.60;;;22.80;77.30;;;;;;5033717;28;20129;-78
2023/06/19 04:12:34;;;;;;;2.15;1.88;;;22.80;77.30;;;;;;5033775;28;20026;-78
2023/06/19 04:14:59;;;;;;;3.80;1.65;;;22.90;77.40;;;;;;5033585;28;20026;-78
2023/06/19 04:17:25;;;;;;;4.38;2.22;;;22.90;77.20;;;;;;5034205;28;20569;-78
2023/06/19 04:19:51;;;;;;;3.50;2.10;;;22.80;77.90;;;;;;5016778;28;20123;-78
2023/06/19 04:22:16;;;;;;;2.38;1.95;;;22.80;77.90;;;;;;5033838;28;20470;-78
2023/06/19 04:24:42;;;;;;;2.53;1.70;;;22.70;78.20;;;;;;5032865;28;20029;-78
2023/06/19 04:27:08;;;;;;;1.77;1.58;;;22.70;78.30;;;;;;5032719;28;20033;-78
2023/06/19 04:29:35;;;;;;;2.25;1.33;;;22.70;78.50;;;;;;5032520;28;20043;-78
2023/06/19 04:32:03;;;;;;;2.17;1.58;;;22.70;78.50;;;;;;5033379;28;20025;-78
2023/06/19 04:34:29;;;;;;;2.78;1.67;;;22.70;78.70;;;;;;5033743;28;20124;-78
2023/06/19 04:36:58;;;;;;;5.28;1.80;;;22.60;79.20;;;;;;5033747;28;20029;-78
2023/06/19 04:39:24;;;;;;;2.35;1.60;;;22.60;79.60;;;;;;5033790;28;20124;-78
2023/06/19 04:41:50;;;;;;;1.70;1.60;;;22.60;79.50;;;;;;5033741;28;20088;-78
2023/06/19 04:44:15;;;;;;;3.28;1.60;;;22.60;80.00;;;;;;5034349;28;20029;-77
2023/06/19 04:46:43;;;;;;;2.90;1.98;;;22.60;80.10;;;;;;5032861;28;20043;-77
2023/06/19 04:49:09;;;;;;;2.53;1.80;;;22.60;80.20;;;;;;5033985;28;20037;-78
2023/06/19 04:51:35;;;;;;;2.67;1.98;;;22.60;80.10;;;;;;5033847;28;20372;-78
2023/06/19 04:54:01;;;;;;;2.45;1.77;;;22.60;80.60;;;;;;5034112;28;20092;-78
2023/06/19 04:56:27;;;;;;;1.98;1.75;;;22.50;81.00;;;;;;5033648;28;20477;-78
2023/06/19 04:58:55;;;;;;;3.22;2.13;;;22.40;81.10;;;;;;5032299;28;20025;-78
2023/06/19 05:01:27;;;;;;;3.83;1.88;;;22.40;81.30;;;;;;5034054;28;20041;-77
2023/06/19 05:03:54;;;;;;;5.20;2.47;;;22.40;81.70;;;;;;5032810;28;20478;-78
2023/06/19 05:06:23;;;;;;;3.90;2.25;;;22.40;81.80;;;;;;5032711;28;20033;-78
2023/06/19 05:08:48;;;;;;;3.13;2.13;;;22.40;81.90;;;;;;5033156;28;20508;-78
2023/06/19 05:11:14;;;;;;;4.55;3.00;;;22.40;82.50;;;;;;5033389;28;20041;-78
2023/06/19 05:13:40;;;;;;;3.88;2.17;;;22.20;83.20;;;;;;5032431;28;20465;-78
2023/06/19 05:16:05;;;;;;;3.50;2.90;;;22.20;83.40;;;;;;5033261;28;20115;-78
2023/06/19 05:18:31;;;;;;;3.90;2.92;;;22.20;83.80;;;;;;5033371;28;20477;-78
2023/06/19 05:20:57;;;;;;;4.10;2.60;;;22.10;84.10;;;;;;5033315;28;20523;-78
2023/06/19 05:23:22;;;;;;;3.22;2.45;;;22.10;84.40;;;;;;5033036;28;20084;-78
2023/06/19 05:25:48;;;;;;;3.42;2.97;;;22.10;84.20;;;;;;5032912;28;20458;-78
2023/06/19 05:28:13;;;;;;;4.30;3.05;;;22.00;84.90;;;;;;5032933;28;20497;-78
2023/06/19 05:30:39;;;;;;;4.93;2.75;;;22.00;85.30;;;;;;5033180;28;20037;-78
2023/06/19 05:33:05;;;;;;;5.13;2.67;;;22.10;85.60;;;;;;5031777;28;20041;-78
2023/06/19 05:35:31;;;;;;;4.18;2.70;;;22.00;85.20;;;;;;5015620;28;20029;-78
2023/06/19 05:37:57;;;;;;;3.53;2.80;;;22.00;85.50;;;;;;5033156;28;20124;-78
2023/06/19 05:40:23;;;;;;;4.47;2.80;;;22.10;85.50;;;;;;5032318;28;20033;-78
2023/06/19 05:42:49;;;;;;;5.07;2.67;;;22.10;85.50;;;;;;5033308;28;20044;-78
2023/06/19 05:45:14;;;;;;;4.55;3.40;;;22.10;85.50;;;;;;5034041;28;20026;-77
2023/06/19 05:47:40;;;;;;;4.55;2.58;;;22.20;85.80;;;;;;5035581;28;20557;-76
2023/06/19 05:50:06;;;;;;;4.43;2.95;;;22.20;85.60;;;;;;5018906;28;20041;-78
2023/06/19 05:52:32;;;;;;;4.60;2.85;;;22.20;85.80;;;;;;5018573;28;20054;-78
2023/06/19 05:54:58;;;;;;;3.65;3.30;;;22.30;85.70;;;;;;5036930;28;20044;-78
2023/06/19 05:57:24;;;;;;;3.58;3.22;;;22.30;85.80;;;;;;5036498;28;20029;-78
2023/06/19 05:59:50;;;;;;;4.35;3.47;;;22.30;85.80;;;;;;5035133;28;20037;-78
2023/06/19 06:02:18;;;;;;;4.25;3.45;;;22.40;85.60;;;;;;5036476;28;20052;-78
2023/06/19 06:04:44;;;;;;;4.50;3.60;;;22.40;85.70;;;;;;5036386;28;20112;-78
2023/06/19 06:07:11;;;;;;;3.92;3.63;;;22.40;85.80;;;;;;5036658;28;20053;-77
2023/06/19 06:09:37;;;;;;;4.35;3.88;;;22.40;85.80;;;;;;5036519;28;20096;-78
2023/06/19 06:12:03;;;;;;;6.03;4.10;;;22.40;85.60;;;;;;5036493;28;20025;-78
2023/06/19 06:14:29;;;;;;;4.78;3.70;;;22.40;85.60;;;;;;5036245;28;20060;-78
2023/06/19 06:16:54;;;;;;;6.70;3.92;;;22.40;85.70;;;;;;5018437;28;20029;-78
2023/06/19 06:19:23;;;;;;;5.28;3.65;;;22.40;85.80;;;;;;5018672;28;20029;-78
2023/06/19 06:21:49;;;;;;;7.03;4.57;;;22.50;85.70;;;;;;5034441;28;20060;-77
2023/06/19 06:24:15;;;;;;;8.80;5.30;;;22.50;85.80;;;;;;5036410;28;20025;-77
2023/06/19 06:26:41;;;;;;;5.32;4.60;;;22.40;86.60;;;;;;5035840;28;20025;-77
2023/06/19 06:29:07;;;;;;;6.22;4.55;;;22.40;86.30;;;;;;5036370;28;20602;-78
2023/06/19 06:31:33;;;;;;;4.43;3.92;;;22.40;86.50;;;;;;5034515;28;20029;-78
2023/06/19 06:33:59;;;;;;;9.88;5.70;;;22.40;86.70;;;;;;5035861;28;20485;-77
2023/06/19 06:36:25;;;;;;;7.03;4.93;;;22.30;87.00;;;;;;5035799;28;20377;-77
2023/06/19 06:38:50;;;;;;;7.43;5.28;;;22.30;87.20;;;;;;5036047;28;20029;-78
2023/06/19 06:41:16;;;;;;;6.70;5.55;;;22.30;87.30;;;;;;5035773;28;20032;-78
2023/06/19 06:43:44;;;;;;;6.93;5.53;;;22.30;87.60;;;;;;5018372;28;20032;-78
2023/06/19 06:46:10;;;;;;;5.10;4.60;;;22.20;87.80;;;;;;5035591;28;20116;-78
2023/06/19 06:48:36;;;;;;;7.55;5.63;;;22.20;87.80;;;;;;5035267;28;20112;-78
2023/06/19 06:51:02;;;;;;;6.30;5.22;;;22.20;88.50;;;;;;5018201;28;20034;-77
2023/06/19 06:53:29;;;;;;;6.22;4.70;;;22.20;88.60;;;;;;5035072;28;20061;-77
2023/06/19 06:55:55;;;;;;;7.32;5.55;;;22.20;88.40;;;;;;5034760;28;20030;-78
2023/06/19 06:58:21;;;;;;;4.57;4.18;;;22.10;87.90;;;;;;5035390;28;20036;-78
2023/06/19 07:00:47;;;;;;;4.35;3.40;;;22.00;86.60;;;;;;5034386;28;20033;-78
2023/06/19 07:03:13;;;;;;;4.85;4.35;;;21.90;86.40;;;;;;5035679;28;20049;-77
2023/06/19 07:05:38;;;;;;;5.07;3.85;;;21.80;86.40;;;;;;5034769;28;20060;-77
2023/06/19 07:08:04;;;;;;;5.03;4.22;;;21.70;86.80;;;;;;5033817;28;20029;-78
2023/06/19 07:10:30;;;;;;;4.55;4.00;;;21.80;87.10;;;;;;5033944;28;20033;-78
2023/06/19 07:12:56;;;;;;;4.43;3.80;;;21.70;87.10;;;;;;5034945;28;20117;-77
2023/06/19 07:15:22;;;;;;;5.72;3.38;;;21.70;87.00;;;;;;5016892;28;20116;-78
2023/06/19 07:17:48;;;;;;;4.10;3.70;;;21.80;86.90;;;;;;5033721;28;20033;-77
2023/06/19 07:20:14;;;;;;;6.25;4.20;;;21.80;86.60;;;;;;5033856;28;20467;-77
2023/06/19 07:22:41;;;;;;;4.90;3.88;;;21.90;86.60;;;;;;5034219;28;20048;-78
2023/06/19 07:25:07;;;;;;;6.07;4.00;;;21.90;86.40;;;;;;5033638;28;20057;-78
2023/06/19 07:27:33;;;;;;;5.50;4.28;;;22.00;86.00;;;;;;5033585;28;20477;-78
2023/06/19 07:29:58;;;;;;;5.05;3.72;;;22.00;85.70;;;;;;5034655;28;20048;-78
2023/06/19 07:32:24;;;;;;;4.82;3.50;;;22.10;85.30;;;;;;5035091;28;20036;-78
2023/06/19 07:34:50;;;;;;;4.13;3.08;;;22.10;84.40;;;;;;5033622;28;20033;-78
2023/06/19 07:37:17;;;;;;;4.75;3.85;;;22.10;84.10;;;;;;5034673;28;20033;-78
2023/06/19 07:39:52;;;;;;;4.95;3.75;;;22.20;83.60;;;;;;5034505;28;20038;-77
2023/06/19 07:42:19;;;;;;;5.50;3.90;;;22.30;83.10;;;;;;5034553;28;20084;-77
2023/06/19 07:44:45;;;;;;;7.07;4.50;;;22.50;82.80;;;;;;5033295;28;20026;-77
2023/06/19 07:47:11;;;;;;;3.30;3.03;;;22.60;81.70;;;;;;5034471;28;20114;-78
2023/06/19 07:49:37;;;;;;;4.95;4.47;;;22.70;81.30;;;;;;5034675;28;20033;-78
2023/06/19 07:52:04;;;;;;;4.93;4.30;;;22.70;81.00;;;;;;5034182;28;20385;-77
2023/06/19 07:54:30;;;;;;;8.57;6.50;;;22.80;80.60;;;;;;5001117;28;20055;-77
2023/06/19 07:56:55;;;;;;;7.93;5.78;;;23.00;79.60;;;;;;5032811;28;20036;-78
2023/06/19 07:59:22;;;;;;;7.13;6.18;;;23.00;79.40;;;;;;5033060;28;20418;-77
2023/06/19 08:01:48;;;;;;;9.70;6.75;;;23.00;78.90;;;;;;5034168;28;20038;-77
2023/06/19 08:04:14;;;;;;;7.90;6.10;;;23.00;79.00;;;;;;5034231;28;20075;-76
2023/06/19 08:06:39;;;;;;;8.15;6.57;;;23.10;78.50;;;;;;5034308;28;20041;-77
2023/06/19 08:09:05;;;;;;;8.10;7.18;;;23.20;77.60;;;;;;5032684;28;20116;-77
2023/06/19 08:11:31;;;;;;;6.90;6.22;;;23.10;77.30;;;;;;5033171;28;20030;-77
2023/06/19 08:13:56;;;;;;;9.50;7.50;;;23.10;77.80;;;;;;5032702;28;20517;-77
2023/06/19 08:16:24;;;;;;;10.65;6.97;;;23.00;78.10;;;;;;5034008;28;20458;-77
2023/06/19 08:18:50;;;;;;;9.98;6.90;;;23.00;77.90;;;;;;5032795;28;20033;-77
2023/06/19 08:21:15;;;;;;;8.27;6.95;;;23.00;77.60;;;;;;5033822;28;20044;-77
2023/06/19 08:23:43;;;;;;;9.07;7.35;;;23.10;77.30;;;;;;5033904;28;20227;-77
2023/06/19 08:26:09;;;;;;;7.80;6.90;;;23.10;76.40;;;;;;5016434;28;20453;-77
2023/06/19 08:28:35;;;;;;;9.32;7.63;;;23.20;76.70;;;;;;5034139;28;20029;-77
2023/06/19 08:31:01;;;;;;;8.90;7.80;;;23.20;77.10;;;;;;5032234;28;20500;-77
2023/06/19 08:33:26;;;;;;;7.63;6.72;;;23.20;77.00;;;;;;5033935;28;20029;-78
2023/06/19 08:35:52;;;;;;;10.25;7.28;;;23.20;76.90;;;;;;5033968;28;20034;-77
2023/06/19 08:38:18;;;;;;;10.50;7.90;;;23.20;76.80;;;;;;5033682;28;20065;-77
2023/06/19 08:40:45;;;;;;;9.25;7.50;;;23.10;75.70;;;;;;5033726;28;20064;-77
2023/06/19 08:43:10;;;;;;;8.30;7.32;;;23.00;76.20;;;;;;5033504;28;20084;-77
2023/06/19 08:45:36;;;;;;;9.95;7.95;;;23.10;76.20;;;;;;5032719;28;20034;-77
2023/06/19 08:48:03;;;;;;;9.88;8.70;;;23.10;76.30;;;;;;5032323;28;20033;-77
2023/06/19 08:50:30;;;;;;;10.25;8.20;;;23.10;76.30;;;;;;5033440;28;20036;-75
2023/06/19 08:52:56;;;;;;;10.30;9.15;;;23.10;76.50;;;;;;5033390;28;20041;-77
2023/06/19 08:55:22;;;;;;;10.23;8.98;;;23.20;76.60;;;;;;5033535;28;20461;-77
2023/06/19 08:57:50;;;;;;;11.07;8.73;;;23.20;76.50;;;;;;5033835;28;20025;-77
2023/06/19 09:00:26;;;;;;;14.13;9.30;;;23.30;76.30;;;;;;5033586;28;20030;-77
2023/06/19 09:02:57;;;;;;;10.75;8.50;;;23.40;76.30;;;;;;5033853;28;20033;-77
2023/06/19 09:05:23;;;;;;;11.23;9.25;;;23.50;76.50;;;;;;5033806;28;20462;-77
2023/06/19 09:08:00;;;;;;;12.07;7.78;;;23.50;76.10;;;;;;5033508;28;20124;-78
2023/06/19 09:10:26;;;;;;;8.48;7.55;;;23.70;76.30;;;;;;5016418;28;20038;-77
2023/06/19 09:13:07;;;;;;;8.95;8.05;;;23.90;76.20;;;;;;5033488;28;20026;-77
2023/06/19 09:15:36;;;;;;;14.27;10.45;;;23.90;75.50;;;;;;5032331;28;20022;-77
2023/06/19 09:18:10;;;;;;;10.10;8.40;;;23.70;75.00;;;;;;5032475;28;20451;-77
2023/06/19 09:20:47;;;;;;;8.75;7.03;;;23.60;75.70;;;;;;5034596;28;20036;-77
2023/06/19 09:23:13;;;;;;;11.32;8.18;;;23.70;76.20;;;;;;5037212;28;20470;-77
2023/06/19 09:25:50;;;;;;;10.02;8.65;;;23.70;75.50;;;;;;5037701;28;20029;-77
2023/06/19 09:28:21;;;;;;;9.88;8.05;;;23.70;75.20;;;;;;5036358;28;20029;-77
2023/06/19 09:31:01;;;;;;;9.65;8.15;;;23.70;75.80;;;;;;5036707;28;20425;-77
2023/06/19 09:33:33;;;;;;;10.15;9.13;;;23.90;75.90;;;;;;5037434;28;20030;-78
2023/06/19 09:35:59;;;;;;;10.73;9.25;;;23.90;74.60;;;;;;5037145;28;20057;-77
2023/06/19 09:38:27;;;;;;;9.68;7.18;;;24.00;74.40;;;;;;5037244;28;20121;-77
2023/06/19 09:40:55;;;;;;;11.38;8.43;;;24.10;74.50;;;;;;5035669;28;20505;-77
2023/06/19 09:43:25;;;;;;;11.75;9.65;;;24.30;74.60;;;;;;5036780;28;20144;-78
2023/06/19 09:45:55;;;;;;;9.40;7.72;;;24.40;73.70;;;;;;5036800;28;20029;-76
2023/06/19 09:48:28;;;;;;;8.88;8.00;;;24.50;73.60;;;;;;5035785;28;20068;-77
2023/06/19 09:51:02;;;;;;;14.35;8.70;;;24.60;73.50;;;;;;5036924;28;20041;-77
2023/06/19 09:53:28;;;;;;;11.60;8.70;;;24.60;73.30;;;;;;5036376;28;20102;-77
2023/06/19 09:55:55;;;;;;;11.25;9.63;;;24.80;73.20;;;;;;5036650;28;20038;-76
2023/06/19 09:58:22;;;;;;;13.30;10.13;;;24.70;72.70;;;;;;5036515;28;20034;-77
2023/06/19 10:00:50;;;;;;;12.43;9.70;;;24.80;73.00;;;;;;5035576;28;20038;-76
2023/06/19 10:03:16;;;;;;;9.55;8.65;;;24.90;72.80;;;;;;5036797;28;20444;-76
2023/06/19 10:05:42;;;;;;;11.10;9.85;;;25.10;72.70;;;;;;5036446;28;20067;-76
2023/06/19 10:08:08;;;;;;;13.52;8.75;;;25.20;71.70;;;;;;5036955;28;20053;-76
2023/06/19 10:10:35;;;;;;;11.50;9.23;;;25.30;71.10;;;;;;5036699;28;20409;-76
2023/06/19 10:13:13;;;;;;;10.38;9.18;;;25.30;70.30;;;;;;5036220;28;20381;-76
2023/06/19 10:15:43;;;;;;;10.98;9.40;;;25.40;70.10;;;;;;5035872;28;20482;-76
2023/06/19 10:18:16;;;;;;;9.45;8.25;;;25.60;69.70;;;;;;5036197;28;20075;-76
2023/06/19 10:20:43;;;;;;;14.70;10.02;;;25.60;69.30;;;;;;5035270;28;20037;-76
2023/06/19 10:23:18;;;;;;;11.70;10.07;;;25.80;69.30;;;;;;5035896;28;20033;-77
2023/06/19 10:25:57;;;;;;;14.13;9.32;;;25.90;68.40;;;;;;5036178;28;20355;-77
2023/06/19 10:28:31;;;;;;;14.38;9.20;;;26.00;69.10;;;;;;5036124;28;20026;-76
2023/06/19 10:31:00;;;;;;;13.73;9.32;;;26.10;68.90;;;;;;5035110;28;20045;-76
2023/06/19 10:33:29;;;;;;;12.45;10.48;;;26.20;69.00;;;;;;5034505;28;20516;-76
2023/06/19 10:35:55;;;;;;;15.27;11.35;;;26.10;67.80;;;;;;5035033;28;20378;-76
2023/06/19 10:38:21;;;;;;;12.65;9.90;;;26.00;68.20;;;;;;5035442;28;20040;-76
2023/06/19 10:40:47;;;;;;;11.45;9.73;;;25.90;68.30;;;;;;5036067;28;20098;-77
2023/06/19 10:43:24;;;;;;;13.38;10.93;;;25.90;68.80;;;;;;5035391;28;20096;-77
2023/06/19 10:45:53;;;;;;;14.82;11.68;;;26.10;68.60;;;;;;5035751;28;20033;-77
2023/06/19 10:48:25;;;;;;;10.70;8.95;;;26.20;68.40;;;;;;5034451;28;20033;-77
2023/06/19 10:50:51;;;;;;;11.32;9.02;;;26.40;68.10;;;;;;5034581;28;20033;-77
2023/06/19 10:53:27;;;;;;;13.20;9.15;;;26.50;68.00;;;;;;5035377;28;20394;-76
2023/06/19 10:56:01;;;;;;;12.77;10.23;;;26.60;67.50;;;;;;5035382;28;20049;-77
2023/06/19 10:58:28;;;;;;;10.63;9.50;;;26.70;66.70;;;;;;5035662;28;20033;-76
2023/06/19 11:00:55;;;;;;;14.05;10.60;;;26.80;66.70;;;;;;5035490;28;20025;-76
2023/06/19 11:03:21;;;;;;;12.70;9.60;;;26.90;66.00;;;;;;5036099;28;20025;-76
2023/06/19 11:05:48;;;;;;;12.95;9.68;;;26.90;66.00;;;;;;5034106;28;20033;-76
2023/06/19 11:08:23;;;;;;;14.07;11.70;;;26.90;65.60;;;;;;5035258;28;20484;-76
2023/06/19 11:10:49;;;;;;;11.98;8.68;;;26.80;65.20;;;;;;5034922;28;20048;-76
2023/06/19 11:13:16;;;;;;;11.13;9.45;;;26.70;66.60;;;;;;5034989;28;20041;-77
2023/06/19 11:15:42;;;;;;;11.73;10.15;;;26.80;66.00;;;;;;5035095;28;20118;-76
2023/06/19 11:18:08;;;;;;;12.10;9.75;;;26.90;65.40;;;;;;5035992;28;20064;-76
2023/06/19 11:20:50;;;;;;;10.48;8.82;;;26.90;64.80;;;;;;5035024;28;20432;-76
2023/06/19 11:23:16;;;;;;;11.77;10.07;;;26.90;64.90;;;;;;5035578;28;20371;-76
2023/06/19 11:25:42;;;;;;;12.35;7.80;;;26.80;64.80;;;;;;5034961;28;20041;-76
2023/06/19 11:28:17;;;;;;;14.10;9.70;;;26.80;65.30;;;;;;5034266;28;20029;-76
2023/06/19 11:30:43;;;;;;;11.85;10.45;;;26.90;65.20;;;;;;5034969;28;20041;-77
2023/06/19 11:33:22;;;;;;;12.23;11.02;;;26.90;64.80;;;;;;5034862;28;20030;-76
2023/06/19 11:35:52;;;;;;;10.73;9.73;;;26.70;64.50;;;;;;5033437;28;20482;-76
2023/06/19 11:38:18;;;;;;;11.95;8.95;;;26.70;65.10;;;;;;5034378;28;20112;-76
2023/06/19 11:40:45;;;;;;;12.18;8.98;;;26.70;64.90;;;;;;5034817;28;20470;-76
2023/06/19 11:43:11;;;;;;;10.70;9.55;;;26.80;64.80;;;;;;5033682;28;20038;-76
2023/06/19 11:45:49;;;;;;;10.60;7.78;;;26.90;63.70;;;;;;5033277;28;20421;-76
2023/06/19 11:48:21;;;;;;;11.52;9.80;;;27.10;63.50;;;;;;5034787;28;20473;-76
2023/06/19 11:50:46;;;;;;;12.25;9.30;;;27.20;62.60;;;;;;5034659;28;20036;-76
2023/06/19 11:53:13;;;;;;;8.82;7.63;;;27.20;62.00;;;;;;5033977;28;20062;-76
2023/06/19 11:55:38;;;;;;;10.05;8.13;;;27.20;62.50;;;;;;5034833;28;20045;-76
2023/06/19 11:58:04;;;;;;;10.05;7.95;;;27.30;62.90;;;;;;5033108;28;20537;-76
2023/06/19 12:00:30;;;;;;;9.70;8.70;;;27.30;62.10;;;;;;5033407;28;20034;-76
2023/06/19 12:02:57;;;;;;;11.23;8.25;;;27.40;62.30;;;;;;5033506;28;20029;-76
2023/06/19 12:05:22;;;;;;;9.45;7.25;;;27.50;62.50;;;;;;5034361;28;20132;-76
2023/06/19 12:07:48;;;;;;;11.10;7.38;;;27.50;60.60;;;;;;5034604;28;20529;-76
2023/06/19 12:10:14;;;;;;;12.82;7.03;;;27.50;60.40;;;;;;5032375;28;20038;-77
2023/06/19 12:12:39;;;;;;;7.88;6.25;;;27.40;60.90;;;;;;5032597;28;20033;-76
2023/06/19 12:15:06;;;;;;;6.93;5.60;;;27.50;61.30;;;;;;5032922;28;20029;-77
2023/06/19 12:17:32;;;;;;;7.60;6.80;;;27.50;59.50;;;;;;5034087;28;20026;-76
2023/06/19 12:19:58;;;;;;;9.68;8.68;;;27.50;58.60;;;;;;5033866;28;20033;-78
2023/06/19 12:22:24;;;;;;;7.93;6.55;;;27.50;59.40;;;;;;5016490;28;20481;-78
2023/06/19 12:24:49;;;;;;;7.80;6.38;;;27.50;60.20;;;;;;5033823;28;20097;-77
2023/06/19 12:27:15;;;;;;;8.52;6.07;;;27.60;59.80;;;;;;5032927;28;20485;-77
2023/06/19 12:29:41;;;;;;;9.15;6.38;;;27.70;58.00;;;;;;5034040;28;20087;-78
2023/06/19 12:32:07;;;;;;;9.48;7.25;;;27.70;57.90;;;;;;5033816;28;20510;-77
2023/06/19 12:34:33;;;;;;;9.95;6.65;;;27.70;57.80;;;;;;5032225;28;20037;-77
2023/06/19 12:36:58;;;;;;;6.70;5.60;;;27.70;58.20;;;;;;5032495;28;20033;-77
2023/06/19 12:39:24;;;;;;;9.65;6.63;;;27.70;58.40;;;;;;5032798;28;20116;-77
2023/06/19 12:41:51;;;;;;;8.77;7.18;;;27.90;58.90;;;;;;5033834;28;20418;-77
2023/06/19 12:44:17;;;;;;;8.77;6.65;;;27.90;57.80;;;;;;5032456;28;20044;-77